Time;durP1;ratioP1;P1;durP2;ratioP2;P2;SDS_P1;SDS_P2;PMS_P1;PMS_P2;Temp;Humidity;BMP_temperature;BMP_pressure;BME280_temperature;BME280_humidity;BME280_pressure;Samples;Min_cycle;Max_cycle;Signal;HPM_P1;HPM_P2
2024/02/18 00:01:44;;;;;;;31.90;14.40;;;;;;;-0.40;100.00;101923.04;106001;1253;62451;-76
2024/02/18 00:04:12;;;;;;;43.80;12.30;;;;;;;-0.45;100.00;101920.77;105910;1251;72442;-73
2024/02/18 00:06:39;;;;;;;35.80;13.30;;;;;;;-0.49;100.00;101919.20;105636;1251;60111;-75
2024/02/18 00:09:07;;;;;;;36.20;13.50;;;;;;;-0.50;100.00;101921.27;105949;1253;59551;-75
2024/02/18 00:11:35;;;;;;;42.60;11.90;;;;;;;-0.51;100.00;101924.17;105960;1250;73508;-75
2024/02/18 00:14:02;;;;;;;29.20;12.90;;;;;;;-0.50;100.00;101929.33;105845;1250;62940;-76
2024/02/18 00:16:31;;;;;;;38.20;14.00;;;;;;;-0.52;100.00;101933.61;105830;1254;72698;-76
2024/02/18 00:18:59;;;;;;;34.80;11.10;;;;;;;-0.54;100.00;101927.77;105770;1250;59680;-76
2024/02/18 00:21:29;;;;;;;40.70;11.00;;;;;;;-0.56;100.00;101926.36;105892;1252;59554;-76
2024/02/18 00:23:57;;;;;;;35.60;10.90;;;;;;;-0.59;100.00;101923.42;105980;1250;71875;-77
2024/02/18 00:26:26;;;;;;;32.70;10.90;;;;;;;-0.62;100.00;101925.83;105816;1252;61661;-76
2024/02/18 00:29:15;;;;;;;33.80;12.00;;;;;;;-0.63;100.00;101922.89;105759;1252;72657;-76
2024/02/18 00:31:42;;;;;;;39.30;12.10;;;;;;;-0.61;100.00;101927.20;105769;1258;59749;-74
2024/02/18 00:34:10;;;;;;;39.40;12.60;;;;;;;-0.63;100.00;101924.09;105666;1253;59825;-73
2024/02/18 00:36:38;;;;;;;36.30;10.50;;;;;;;-0.65;100.00;101922.70;105567;1258;71104;-74
2024/02/18 00:39:05;;;;;;;33.60;8.90;;;;;;;-0.66;100.00;101920.81;105791;1252;62494;-77
2024/02/18 00:41:34;;;;;;;27.70;9.50;;;;;;;-0.66;100.00;101919.77;105747;1256;72797;-75
2024/02/18 00:44:02;;;;;;;32.90;10.50;;;;;;;-0.66;100.00;101921.15;105652;1253;60927;-76
2024/02/18 00:46:30;;;;;;;40.90;11.90;;;;;;;-0.66;100.00;101921.50;105782;1253;59634;-77
2024/02/18 00:49:14;;;;;;;39.50;10.00;;;;;;;-0.68;100.00;101914.10;105787;1257;71986;-75
2024/02/18 00:51:41;;;;;;;35.50;10.60;;;;;;;-0.70;100.00;101916.31;105655;1253;62900;-76
2024/02/18 00:54:09;;;;;;;32.60;11.80;;;;;;;-0.74;100.00;101914.39;105763;1256;72515;-77
2024/02/18 00:56:39;;;;;;;42.90;12.80;;;;;;;-0.77;100.00;101912.83;105786;1253;59953;-78
2024/02/18 00:59:06;;;;;;;34.20;10.90;;;;;;;-0.79;100.00;101914.17;105682;1257;59763;-75
2024/02/18 01:01:34;;;;;;;33.60;10.10;;;;;;;-0.81;100.00;101921.38;105686;1253;71843;-75
2024/02/18 01:04:02;;;;;;;23.10;9.30;;;;;;;-0.83;100.00;101919.47;105743;1253;63650;-76
2024/02/18 01:06:29;;;;;;;35.80;10.70;;;;;;;-0.87;100.00;101920.30;105787;1253;71402;-75
2024/02/18 01:08:57;;;;;;;40.30;10.30;;;;;;;-0.88;100.00;101924.40;105678;1256;59660;-75
2024/02/18 01:11:25;;;;;;;30.60;10.10;;;;;;;-0.90;100.00;101925.94;105665;1252;59661;-76
2024/02/18 01:13:52;;;;;;;39.90;12.00;;;;;;;-0.92;100.00;101924.20;105764;1257;73128;-75
2024/02/18 01:16:20;;;;;;;32.40;10.40;;;;;;;-0.94;100.00;101923.33;105794;1253;63499;-75
2024/02/18 01:18:49;;;;;;;35.60;10.50;;;;;;;-0.95;100.00;101920.75;105784;1253;72120;-76
2024/02/18 01:21:18;;;;;;;37.20;8.70;;;;;;;-0.98;100.00;101917.63;105850;1253;61133;-75
2024/02/18 01:23:45;;;;;;;33.10;10.60;;;;;;;-0.99;100.00;101913.34;105753;1253;60438;-76
2024/02/18 01:26:13;;;;;;;28.30;10.40;;;;;;;-1.01;100.00;101912.80;105731;1257;72193;-77
2024/02/18 01:28:41;;;;;;;35.50;11.40;;;;;;;-1.04;100.00;101908.83;105704;1253;62870;-76
2024/02/18 01:31:09;;;;;;;31.10;10.60;;;;;;;-1.06;100.00;101906.23;105682;1253;71831;-76
2024/02/18 01:33:37;;;;;;;40.30;9.30;;;;;;;-1.09;100.00;101901.40;105713;1257;59668;-74
2024/02/18 01:36:05;;;;;;;46.60;10.40;;;;;;;-1.11;100.00;101900.00;105747;1253;60007;-75
2024/02/18 01:38:32;;;;;;;32.50;11.60;;;;;;;-1.12;100.00;101899.83;105858;1253;71870;-76
2024/02/18 01:41:00;;;;;;;36.60;9.90;;;;;;;-1.12;100.00;101896.23;105798;1252;62428;-75
2024/02/18 01:43:27;;;;;;;32.80;8.60;;;;;;;-1.12;100.00;101900.35;105730;1253;71258;-75
2024/02/18 01:45:55;;;;;;;38.80;9.40;;;;;;;-1.11;100.00;101900.52;105700;1253;59686;-74
2024/02/18 01:48:23;;;;;;;29.30;8.80;;;;;;;-1.12;100.00;101897.61;105694;1257;60051;-75
2024/02/18 01:50:51;;;;;;;27.70;7.90;;;;;;;-1.13;100.00;101896.39;105655;1253;72881;-76
2024/02/18 01:53:19;;;;;;;24.10;8.50;;;;;;;-1.14;100.00;101898.27;105705;1256;64117;-75
2024/02/18 01:55:46;;;;;;;28.20;8.30;;;;;;;-1.15;100.00;101896.04;105634;1253;71424;-76
2024/02/18 01:58:14;;;;;;;35.00;7.60;;;;;;;-1.15;100.00;101891.92;105481;1258;61020;-76
2024/02/18 02:00:43;;;;;;;19.40;7.80;;;;;;;-1.15;100.00;101887.96;105650;1258;59662;-76
2024/02/18 02:03:12;;;;;;;19.70;7.80;;;;;;;-1.15;100.00;101888.66;105670;1257;73036;-77
2024/02/18 02:05:41;;;;;;;31.50;9.60;;;;;;;-1.16;100.00;101888.80;105678;1253;62349;-75
2024/02/18 02:08:09;;;;;;;33.90;7.20;;;;;;;-1.16;100.00;101895.33;105760;1255;71701;-77
2024/02/18 02:10:37;;;;;;;23.20;7.70;;;;;;;-1.17;100.00;101891.89;105835;1253;59878;-75
2024/02/18 02:13:05;;;;;;;26.20;8.00;;;;;;;-1.18;100.00;101885.88;106184;1253;59841;-74
2024/02/18 02:15:34;;;;;;;22.60;7.30;;;;;;;-1.18;100.00;101883.81;106508;1253;71534;-72
2024/02/18 02:18:03;;;;;;;26.40;8.40;;;;;;;-1.20;100.00;101883.45;106118;1252;62430;-75
2024/02/18 02:20:30;;;;;;;32.40;7.70;;;;;;;-1.23;100.00;101879.83;105928;1256;72678;-76
2024/02/18 02:22:57;;;;;;;18.60;7.00;;;;;;;-1.26;100.00;101882.73;105700;1257;60194;-75
2024/02/18 02:25:25;;;;;;;40.20;9.40;;;;;;;-1.28;100.00;101882.52;105726;1253;59995;-75
2024/02/18 02:28:03;;;;;;;22.40;6.90;;;;;;;-1.30;100.00;101878.23;105743;1252;73131;-74
2024/02/18 02:30:31;;;;;;;26.40;7.70;;;;;;;-1.31;100.00;101874.10;105863;1259;62787;-75
2024/02/18 02:32:59;;;;;;;28.40;8.70;;;;;;;-1.33;100.00;101875.79;105924;1253;72755;-75
2024/02/18 02:35:27;;;;;;;26.60;7.80;;;;;;;-1.35;100.00;101876.46;105723;1253;60906;-76
2024/02/18 02:37:59;;;;;;;26.50;7.60;;;;;;;-1.36;100.00;101875.59;105836;1257;59742;-75
2024/02/18 02:40:27;;;;;;;37.20;9.80;;;;;;;-1.38;100.00;101878.16;105805;1257;73368;-75
2024/02/18 02:42:54;;;;;;;39.70;9.20;;;;;;;-1.39;100.00;101882.77;105868;1257;62526;-75
2024/02/18 02:45:23;;;;;;;37.30;9.30;;;;;;;-1.40;100.00;101881.73;105721;1253;71191;-75
2024/02/18 02:47:52;;;;;;;36.30;8.50;;;;;;;-1.42;100.00;101882.21;105714;1254;59801;-77
2024/02/18 02:50:20;;;;;;;32.40;8.40;;;;;;;-1.44;100.00;101884.95;105706;1253;59549;-74
2024/02/18 02:52:47;;;;;;;35.60;9.30;;;;;;;-1.43;100.00;101880.84;105761;1254;72787;-77
2024/02/18 02:55:15;;;;;;;34.40;9.40;;;;;;;-1.43;100.00;101886.50;105894;1259;63544;-75
2024/02/18 02:57:42;;;;;;;33.50;10.20;;;;;;;-1.44;100.00;101895.07;105791;1257;75057;-75
2024/02/18 03:00:11;;;;;;;37.00;8.40;;;;;;;-1.45;100.00;101892.15;105800;1252;62188;-75
2024/02/18 03:02:39;;;;;;;33.80;7.80;;;;;;;-1.45;100.00;101894.38;105874;1253;60351;-77
2024/02/18 03:05:07;;;;;;;36.40;8.80;;;;;;;-1.48;100.00;101893.31;105750;1257;73175;-74
2024/02/18 03:07:35;;;;;;;31.80;8.90;;;;;;;-1.50;100.00;101895.70;105989;1256;63730;-76
2024/02/18 03:10:04;;;;;;;35.80;9.70;;;;;;;-1.52;100.00;101897.56;105801;1253;71878;-75
2024/02/18 03:12:32;;;;;;;33.80;8.30;;;;;;;-1.54;100.00;101892.05;105775;1253;60608;-77
2024/02/18 03:15:00;;;;;;;40.40;9.70;;;;;;;-1.56;100.00;101895.64;105792;1257;60503;-76
2024/02/18 03:17:27;;;;;;;41.90;9.10;;;;;;;-1.57;100.00;101894.77;105888;1256;72640;-76
2024/02/18 03:19:55;;;;;;;41.20;9.00;;;;;;;-1.57;100.00;101898.02;105711;1256;61308;-76
2024/02/18 03:22:23;;;;;;;31.10;7.90;;;;;;;-1.55;100.00;101904.39;105739;1253;71358;-77
2024/02/18 03:24:51;;;;;;;45.20;9.90;;;;;;;-1.54;100.00;101912.28;105833;1253;63254;-77
2024/02/18 03:27:19;;;;;;;29.40;8.60;;;;;;;-1.55;100.00;101916.73;105724;1252;60433;-76
2024/02/18 03:29:48;;;;;;;34.30;8.50;;;;;;;-1.54;100.00;101911.09;105857;1253;73087;-76
2024/02/18 03:32:15;;;;;;;42.30;9.90;;;;;;;-1.52;100.00;101916.27;105678;1253;62868;-77
2024/02/18 03:34:43;;;;;;;37.40;8.10;;;;;;;-1.50;100.00;101914.73;105702;1257;72167;-76
2024/02/18 03:37:11;;;;;;;37.60;11.90;;;;;;;-1.49;100.00;101904.27;105792;1255;60554;-76
2024/02/18 03:39:39;;;;;;;45.50;9.70;;;;;;;-1.49;100.00;101904.27;105743;1256;60444;-75
2024/02/18 03:42:07;;;;;;;45.60;8.70;;;;;;;-1.47;100.00;101907.05;105706;1253;73775;-76
2024/02/18 03:44:35;;;;;;;42.50;8.70;;;;;;;-1.46;100.00;101899.17;105811;1253;62392;-76
2024/02/18 03:47:03;;;;;;;44.80;9.10;;;;;;;-1.45;100.00;101899.01;105664;1258;71497;-77
2024/02/18 03:49:30;;;;;;;52.00;9.80;;;;;;;-1.45;100.00;101897.98;105768;1253;60900;-76
2024/02/18 03:51:59;;;;;;;44.20;9.20;;;;;;;-1.44;100.00;101892.50;105877;1254;60358;-74
2024/02/18 03:54:26;;;;;;;35.70;8.30;;;;;;;-1.41;100.00;101893.73;105874;1253;72626;-76
2024/02/18 03:56:54;;;;;;;35.80;8.80;;;;;;;-1.38;100.00;101899.76;105761;1259;62491;-76
2024/02/18 03:59:22;;;;;;;39.80;10.00;;;;;;;-1.35;100.00;101893.27;105900;1252;70874;-77
2024/02/18 04:01:49;;;;;;;44.60;10.10;;;;;;;-1.33;100.00;101897.23;105843;1253;61050;-75
2024/02/18 04:04:17;;;;;;;43.10;9.90;;;;;;;-1.30;100.00;101894.02;105846;1257;60547;-76
2024/02/18 04:06:45;;;;;;;37.20;10.10;;;;;;;-1.27;100.00;101893.52;105673;1256;71705;-75
2024/02/18 04:09:13;;;;;;;47.60;12.00;;;;;;;-1.24;100.00;101896.13;105603;1257;62390;-77
2024/02/18 04:11:40;;;;;;;38.90;9.60;;;;;;;-1.22;100.00;101899.58;105806;1259;72341;-76
2024/02/18 04:14:08;;;;;;;40.70;9.10;;;;;;;-1.23;100.00;101907.27;105763;1253;62195;-74
2024/02/18 04:16:35;;;;;;;52.10;11.70;;;;;;;-1.22;100.00;101902.48;105822;1253;60635;-75
2024/02/18 04:19:03;;;;;;;37.40;10.70;;;;;;;-1.21;100.00;101902.15;105728;1256;74989;-76
2024/02/18 04:21:31;;;;;;;40.10;9.60;;;;;;;-1.22;100.00;101906.60;105881;1252;63634;-76
2024/02/18 04:23:58;;;;;;;42.00;10.00;;;;;;;-1.22;100.00;101905.40;105928;1253;72625;-76
2024/02/18 04:26:26;;;;;;;51.90;10.10;;;;;;;-1.23;100.00;101903.84;105665;1253;61382;-73
2024/02/18 04:28:53;;;;;;;45.00;11.40;;;;;;;-1.26;100.00;101900.05;105784;1253;60464;-75
2024/02/18 04:31:21;;;;;;;48.40;10.50;;;;;;;-1.29;100.00;101898.13;105687;1259;73918;-77
2024/02/18 04:33:48;;;;;;;44.00;8.90;;;;;;;-1.30;100.00;101896.40;105698;1255;62736;-77
2024/02/18 04:36:16;;;;;;;46.50;10.80;;;;;;;-1.31;100.00;101899.33;105758;1251;72816;-76
2024/02/18 04:38:47;;;;;;;53.90;11.40;;;;;;;-1.32;100.00;101900.84;105870;1256;60884;-76
2024/02/18 04:41:15;;;;;;;45.10;10.00;;;;;;;-1.32;100.00;101901.88;105763;1258;60446;-75
2024/02/18 04:43:42;;;;;;;36.90;10.50;;;;;;;-1.31;100.00;101905.32;105695;1253;72862;-73
2024/02/18 04:46:10;;;;;;;42.90;10.40;;;;;;;-1.28;100.00;101913.75;105750;1257;63786;-74
2024/02/18 04:48:39;;;;;;;62.90;13.80;;;;;;;-1.27;100.00;101913.60;105778;1259;71797;-74
2024/02/18 04:51:08;;;;;;;49.50;13.50;;;;;;;-1.28;100.00;101907.39;105638;1253;60438;-75
2024/02/18 04:53:36;;;;;;;58.20;21.30;;;;;;;-1.31;100.00;101907.39;105878;1256;60495;-76
2024/02/18 04:56:05;;;;;;;63.80;21.20;;;;;;;-1.30;100.00;101912.52;105799;1254;73509;-75
2024/02/18 04:58:33;;;;;;;60.40;20.30;;;;;;;-1.27;100.00;101913.77;105745;1257;63600;-76
2024/02/18 05:01:01;;;;;;;50.60;14.40;;;;;;;-1.26;100.00;101917.71;105835;1258;72679;-76
2024/02/18 05:03:29;;;;;;;36.60;12.40;;;;;;;-1.25;100.00;101919.60;105850;1253;60983;-75
2024/02/18 05:05:56;;;;;;;34.90;10.30;;;;;;;-1.23;100.00;101919.12;105776;1258;60365;-76
2024/02/18 05:08:24;;;;;;;48.70;10.50;;;;;;;-1.22;100.00;101919.98;105868;1257;72567;-76
2024/02/18 05:10:52;;;;;;;46.60;10.50;;;;;;;-1.24;100.00;101919.29;105909;1257;63557;-75
2024/02/18 05:13:22;;;;;;;44.50;15.10;;;;;;;-1.25;100.00;101919.61;106521;1253;71278;-74
2024/02/18 05:15:51;;;;;;;40.70;14.20;;;;;;;-1.25;100.00;101915.67;106470;1253;60554;-76
2024/02/18 05:18:19;;;;;;;45.30;12.80;;;;;;;-1.26;100.00;101913.08;105797;1253;60365;-74
2024/02/18 05:20:47;;;;;;;38.70;10.70;;;;;;;-1.30;100.00;101905.67;106334;1253;74147;-75
2024/02/18 05:23:14;;;;;;;54.50;12.80;;;;;;;-1.30;100.00;101901.55;106236;1253;63146;-75
2024/02/18 05:25:44;;;;;;;40.80;11.80;;;;;;;-1.30;100.00;101901.20;107791;1257;72727;-73
2024/02/18 05:28:12;;;;;;;40.90;11.00;;;;;;;-1.29;100.00;101903.27;107571;1254;60328;-73
2024/02/18 05:30:40;;;;;;;50.20;12.30;;;;;;;-1.26;100.00;101907.08;108923;1252;60357;-75
2024/02/18 05:33:08;;;;;;;43.00;11.90;;;;;;;-1.23;100.00;101912.24;109117;1252;72446;-77
2024/02/18 05:35:36;;;;;;;43.80;11.40;;;;;;;-1.23;100.00;101915.86;108936;1253;62499;-74
2024/02/18 05:38:04;;;;;;;34.10;11.90;;;;;;;-1.20;100.00;101912.10;108601;1253;71515;-75
2024/02/18 05:40:31;;;;;;;38.70;11.40;;;;;;;-1.19;100.00;101912.98;106078;1256;60506;-77
2024/02/18 05:42:59;;;;;;;36.80;13.10;;;;;;;-1.17;100.00;101908.55;105972;1257;60363;-76
2024/02/18 05:45:31;;;;;;;41.00;12.90;;;;;;;-1.15;100.00;101910.45;105783;1257;73966;-76
2024/02/18 05:47:59;;;;;;;53.80;12.10;;;;;;;-1.13;100.00;101908.41;105854;1253;63542;-76
2024/02/18 05:50:27;;;;;;;37.20;10.90;;;;;;;-1.12;100.00;101906.70;105759;1257;70593;-76
2024/02/18 05:52:54;;;;;;;45.90;12.00;;;;;;;-1.13;100.00;101903.77;105704;1257;61039;-76
2024/02/18 05:55:25;;;;;;;37.30;12.10;;;;;;;-1.15;100.00;101906.52;105753;1253;60821;-75
2024/02/18 05:57:53;;;;;;;46.60;14.00;;;;;;;-1.17;100.00;101908.02;105794;1257;74111;-76
2024/02/18 06:00:20;;;;;;;32.80;12.60;;;;;;;-1.17;100.00;101913.68;105739;1252;62671;-75
2024/02/18 06:02:48;;;;;;;28.00;11.30;;;;;;;-1.15;100.00;101910.11;105728;1254;72814;-78
2024/02/18 06:05:17;;;;;;;39.90;10.80;;;;;;;-1.13;100.00;101912.52;105708;1257;60844;-77
2024/02/18 06:07:46;;;;;;;29.20;9.90;;;;;;;-1.13;100.00;101912.70;105931;1253;60390;-78
2024/02/18 06:10:14;;;;;;;46.60;11.70;;;;;;;-1.15;100.00;101913.02;105825;1253;76136;-77
2024/02/18 06:12:42;;;;;;;26.70;11.30;;;;;;;-1.16;100.00;101914.37;105822;1253;62257;-77
2024/02/18 06:15:10;;;;;;;31.50;12.40;;;;;;;-1.17;100.00;101910.77;106514;1255;72771;-75
2024/02/18 06:17:38;;;;;;;28.50;11.20;;;;;;;-1.18;100.00;101911.10;106260;1253;60442;-76
2024/02/18 06:20:10;;;;;;;34.40;10.60;;;;;;;-1.17;100.00;101905.79;105952;1254;60646;-76
2024/02/18 06:22:39;;;;;;;48.80;11.20;;;;;;;-1.14;100.00;101907.02;109575;1253;73935;-75
2024/02/18 06:25:08;;;;;;;32.00;12.30;;;;;;;-1.12;100.00;101908.92;109561;1252;62399;-76
2024/02/18 06:27:36;;;;;;;32.80;12.60;;;;;;;-1.12;100.00;101911.66;109582;1252;72753;-76
2024/02/18 06:30:05;;;;;;;31.70;10.90;;;;;;;-1.10;100.00;101914.60;109563;1253;59673;-75
2024/02/18 06:32:33;;;;;;;31.10;10.90;;;;;;;-1.07;100.00;101914.29;109594;1253;58787;-75
2024/02/18 06:35:02;;;;;;;30.30;11.20;;;;;;;-1.03;100.00;101912.95;109679;1253;73889;-75
2024/02/18 06:37:29;;;;;;;37.10;13.00;;;;;;;-0.95;100.00;101913.70;109606;1253;64050;-76
2024/02/18 06:39:57;;;;;;;44.70;16.60;;;;;;;-0.86;100.00;101913.60;109586;1253;71416;-76
2024/02/18 06:42:25;;;;;;;43.40;15.30;;;;;;;-0.78;100.00;101914.70;109598;1252;61814;-76
2024/02/18 06:44:53;;;;;;;41.40;13.30;;;;;;;-0.72;100.00;101914.77;109607;1252;58871;-76
2024/02/18 06:47:20;;;;;;;35.10;12.40;;;;;;;-0.68;100.00;101917.70;109592;1252;73923;-75
2024/02/18 06:49:47;;;;;;;32.70;14.00;;;;;;;-0.65;100.00;101916.35;109585;1253;63590;-76
2024/02/18 06:52:15;;;;;;;30.50;13.20;;;;;;;-0.60;100.00;101918.10;109617;1253;71705;-76
2024/02/18 06:54:43;;;;;;;38.60;13.20;;;;;;;-0.58;100.00;101916.56;109540;1253;60142;-78
2024/02/18 06:57:11;;;;;;;41.80;14.40;;;;;;;-0.55;100.00;101911.09;109614;1255;59847;-77
2024/02/18 06:59:38;;;;;;;32.10;14.00;;;;;;;-0.48;100.00;101910.96;109593;1253;73202;-74
2024/02/18 07:02:07;;;;;;;35.40;12.70;;;;;;;-0.43;100.00;101914.60;109618;1251;63660;-76
2024/02/18 07:04:34;;;;;;;44.70;18.70;;;;;;;-0.40;100.00;101920.99;109569;1252;73717;-77
2024/02/18 07:07:02;;;;;;;50.30;18.60;;;;;;;-0.38;100.00;101924.08;109600;1251;59728;-75
2024/02/18 07:09:30;;;;;;;39.70;16.00;;;;;;;-0.38;100.00;101919.79;109600;1251;58813;-77
2024/02/18 07:11:57;;;;;;;43.00;15.00;;;;;;;-0.33;100.00;101914.67;109605;1252;73951;-77
2024/02/18 07:14:26;;;;;;;35.50;14.70;;;;;;;-0.28;100.00;101915.38;109645;1252;62292;-77
2024/02/18 07:16:53;;;;;;;29.50;15.60;;;;;;;-0.26;100.00;101913.67;109649;1253;72451;-75
2024/02/18 07:19:21;;;;;;;35.20;13.20;;;;;;;-0.25;100.00;101909.20;109566;1256;60982;-74
2024/02/18 07:21:49;;;;;;;40.60;14.30;;;;;;;-0.27;100.00;101901.48;109702;1252;58898;-76
2024/02/18 07:24:16;;;;;;;36.10;15.20;;;;;;;-0.31;100.00;101899.23;109696;1252;72471;-75
2024/02/18 07:26:44;;;;;;;31.70;13.40;;;;;;;-0.35;100.00;101899.37;109689;1253;63521;-76
2024/02/18 07:29:11;;;;;;;34.30;14.30;;;;;;;-0.38;100.00;101894.88;109740;1252;72716;-76
2024/02/18 07:31:40;;;;;;;33.30;12.20;;;;;;;-0.38;100.00;101890.23;109733;1253;59975;-75
2024/02/18 07:34:08;;;;;;;35.70;13.60;;;;;;;-0.36;100.00;101886.30;109825;1253;58812;-77
2024/02/18 07:36:36;;;;;;;45.30;14.80;;;;;;;-0.34;100.00;101879.96;109763;1253;74888;-76
2024/02/18 07:39:04;;;;;;;36.80;14.00;;;;;;;-0.30;100.00;101879.64;109810;1254;62586;-77
2024/02/18 07:41:31;;;;;;;37.10;15.50;;;;;;;-0.24;100.00;101882.24;109610;1253;72424;-78
2024/02/18 07:43:59;;;;;;;32.40;14.10;;;;;;;-0.18;100.00;101881.92;109627;1252;59630;-77
2024/02/18 07:46:28;;;;;;;32.10;15.40;;;;;;;-0.14;100.00;101879.89;109635;1253;58725;-76
2024/02/18 07:48:56;;;;;;;45.80;18.20;;;;;;;-0.14;100.00;101882.64;109659;1256;71280;-76
2024/02/18 07:51:27;;;;;;;31.10;15.30;;;;;;;-0.14;100.00;101890.38;109637;1251;63695;-76
2024/02/18 07:53:58;;;;;;;36.40;16.70;;;;;;;-0.12;100.00;101887.46;109613;1256;72478;-76
2024/02/18 07:56:27;;;;;;;41.30;17.10;;;;;;;-0.09;100.00;101889.70;109691;1253;60828;-75
2024/02/18 07:58:55;;;;;;;35.40;16.00;;;;;;;-0.07;100.00;101889.71;109601;1252;60314;-77
2024/02/18 08:01:23;;;;;;;39.80;17.00;;;;;;;-0.07;100.00;101885.59;109607;1253;72664;-75
2024/02/18 08:03:50;;;;;;;42.50;15.50;;;;;;;-0.07;100.00;101884.05;109604;1253;63707;-77
2024/02/18 08:06:18;;;;;;;50.60;16.90;;;;;;;-0.06;100.00;101882.84;109613;1253;73130;-75
2024/02/18 08:08:46;;;;;;;44.20;15.80;;;;;;;-0.05;100.00;101883.19;109599;1253;60922;-76
2024/02/18 08:11:13;;;;;;;31.60;14.70;;;;;;;-0.06;100.00;101883.52;109631;1252;60202;-76
2024/02/18 08:13:40;;;;;;;38.60;16.10;;;;;;;-0.04;100.00;101884.05;109591;1252;73910;-77
2024/02/18 08:16:09;;;;;;;39.90;14.90;;;;;;;-0.05;100.00;101879.57;109610;1252;62501;-77
2024/02/18 08:18:37;;;;;;;43.60;18.50;;;;;;;-0.07;100.00;101879.73;109571;1252;72406;-75
2024/02/18 08:21:05;;;;;;;36.30;16.00;;;;;;;-0.09;100.00;101880.77;109424;1253;59710;-76
2024/02/18 08:23:33;;;;;;;34.30;16.10;;;;;;;-0.10;100.00;101882.14;109605;1252;58859;-75
2024/02/18 08:26:01;;;;;;;38.40;15.70;;;;;;;-0.11;100.00;101882.13;109602;1253;72674;-75
2024/02/18 08:28:28;;;;;;;45.20;17.90;;;;;;;-0.11;100.00;101877.48;109604;1251;62742;-76
2024/02/18 08:30:56;;;;;;;42.40;16.80;;;;;;;-0.12;100.00;101879.72;109569;1253;72773;-75
2024/02/18 08:33:24;;;;;;;43.40;17.80;;;;;;;-0.15;100.00;101879.87;109560;1254;60952;-76
2024/02/18 08:35:51;;;;;;;35.50;17.00;;;;;;;-0.19;100.00;101882.27;109432;1251;59208;-75
2024/02/18 08:38:20;;;;;;;41.70;17.80;;;;;;;-0.19;100.00;101882.45;109576;1253;73276;-77
2024/02/18 08:40:48;;;;;;;37.10;16.80;;;;;;;-0.13;100.00;101881.10;109566;1253;62437;-75
2024/02/18 08:43:16;;;;;;;39.60;16.00;;;;;;;-0.07;100.00;101881.11;109601;1253;72845;-76
2024/02/18 08:45:45;;;;;;;40.10;18.50;;;;;;;-0.02;100.00;101881.48;109516;1253;59671;-77
2024/02/18 08:48:13;;;;;;;35.00;16.60;;;;;;;0.03;100.00;101880.12;109631;1253;58783;-77
2024/02/18 08:50:41;;;;;;;27.00;14.80;;;;;;;0.07;100.00;101874.63;109583;1253;73768;-75
2024/02/18 08:53:09;;;;;;;38.60;18.80;;;;;;;0.07;100.00;101873.26;109587;1251;62405;-76
2024/02/18 08:55:37;;;;;;;39.80;19.20;;;;;;;0.07;100.00;101874.13;109589;1252;71754;-75
2024/02/18 08:58:04;;;;;;;39.40;17.20;;;;;;;0.10;100.00;101871.21;109590;1252;60940;-75
2024/02/18 09:00:32;;;;;;;43.20;18.70;;;;;;;0.13;100.00;101880.67;109656;1251;58809;-76
2024/02/18 09:03:00;;;;;;;39.30;16.70;;;;;;;0.13;100.00;101879.29;109619;1256;72683;-75
2024/02/18 09:05:28;;;;;;;42.50;17.30;;;;;;;0.15;100.00;101883.42;109454;1253;64722;-75
2024/02/18 09:07:55;;;;;;;37.90;19.50;;;;;;;0.16;100.00;101879.84;109595;1254;71240;-76
2024/02/18 09:10:23;;;;;;;49.10;24.10;;;;;;;0.17;100.00;101879.14;109551;1253;62636;-75
2024/02/18 09:13:00;;;;;;;40.50;19.00;;;;;;;0.19;100.00;101879.49;109569;1252;60541;-76
2024/02/18 09:15:29;;;;;;;42.20;19.90;;;;;;;0.19;100.00;101879.66;109571;1253;73955;-76
2024/02/18 09:17:58;;;;;;;40.70;19.50;;;;;;;0.20;100.00;101876.06;109589;1252;63703;-76
2024/02/18 09:20:27;;;;;;;35.20;16.80;;;;;;;0.23;100.00;101880.20;109566;1253;73430;-76
2024/02/18 09:22:58;;;;;;;36.90;17.20;;;;;;;0.22;100.00;101877.09;109581;1254;61398;-77
2024/02/18 09:25:25;;;;;;;37.00;17.90;;;;;;;0.22;100.00;101875.02;109597;1253;59151;-77
2024/02/18 09:27:53;;;;;;;36.00;19.50;;;;;;;0.22;100.00;101878.64;109572;1253;73924;-77
2024/02/18 09:30:21;;;;;;;35.00;19.80;;;;;;;0.22;100.00;101875.20;109589;1253;62446;-79
2024/02/18 09:32:50;;;;;;;46.60;22.90;;;;;;;0.24;100.00;101875.21;109534;1256;73044;-77
2024/02/18 09:35:17;;;;;;;34.50;18.10;;;;;;;0.24;100.00;101869.70;109575;1254;62365;-76
2024/02/18 09:37:45;;;;;;;37.80;16.50;;;;;;;0.25;100.00;101867.31;109598;1253;60023;-77
2024/02/18 09:40:13;;;;;;;32.40;16.70;;;;;;;0.24;100.00;101868.34;109583;1254;72647;-76
2024/02/18 09:42:41;;;;;;;23.20;15.10;;;;;;;0.21;100.00;101867.11;109576;1253;64593;-77
2024/02/18 09:45:16;;;;;;;31.40;17.10;;;;;;;0.17;100.00;101866.24;109587;1254;72475;-78
2024/02/18 09:47:44;;;;;;;48.90;23.10;;;;;;;0.19;100.00;101864.71;109490;1254;60716;-77
2024/02/18 09:50:13;;;;;;;46.20;24.20;;;;;;;0.23;100.00;101862.48;109396;1253;58808;-77
2024/02/18 09:52:41;;;;;;;42.40;21.10;;;;;;;0.27;100.00;101861.64;109451;1254;73509;-76
2024/02/18 09:55:11;;;;;;;44.70;19.40;;;;;;;0.32;100.00;101854.42;109638;1251;63739;-78
2024/02/18 09:57:39;;;;;;;44.20;16.30;;;;;;;0.34;100.00;101853.73;109551;1254;72818;-77
2024/02/18 10:00:10;;;;;;;33.90;15.00;;;;;;;0.39;100.00;101848.24;109577;1254;59631;-76
2024/02/18 10:02:38;;;;;;;26.50;13.90;;;;;;;0.44;100.00;101849.80;109579;1254;61402;-77
2024/02/18 10:05:10;;;;;;;24.70;12.60;;;;;;;0.44;100.00;101848.09;109357;1252;74213;-76
2024/02/18 10:07:38;;;;;;;27.90;13.70;;;;;;;0.42;100.00;101840.85;109593;1253;63593;-77
2024/02/18 10:10:07;;;;;;;23.90;12.70;;;;;;;0.43;100.00;101844.64;109421;1253;71273;-77
2024/02/18 10:12:35;;;;;;;32.30;13.70;;;;;;;0.44;100.00;101841.03;109543;1252;61293;-76
2024/02/18 10:15:05;;;;;;;29.00;13.20;;;;;;;0.46;100.00;101841.54;109669;1252;59023;-75
2024/02/18 10:17:33;;;;;;;31.10;13.30;;;;;;;0.49;100.00;101844.13;109563;1253;72708;-76
2024/02/18 10:20:01;;;;;;;24.90;13.50;;;;;;;0.51;100.00;101844.48;109576;1254;64464;-76
2024/02/18 10:22:29;;;;;;;34.70;17.70;;;;;;;0.55;100.00;101846.55;109425;1254;73106;-77
2024/02/18 10:24:57;;;;;;;38.70;18.10;;;;;;;0.59;100.00;101846.56;109533;1254;60888;-77
2024/02/18 10:27:25;;;;;;;31.00;15.60;;;;;;;0.61;100.00;101847.41;109539;1256;60136;-75
2024/02/18 10:29:52;;;;;;;36.50;17.10;;;;;;;0.64;100.00;101840.89;109567;1252;72587;-77
2024/02/18 10:32:20;;;;;;;29.00;13.40;;;;;;;0.69;100.00;101839.34;109573;1252;62469;-77
2024/02/18 10:34:48;;;;;;;22.20;12.50;;;;;;;0.74;100.00;101841.22;109493;1254;72621;-75
2024/02/18 10:37:28;;;;;;;25.00;13.40;;;;;;;0.76;100.00;101841.58;109545;1254;59813;-76
2024/02/18 10:40:00;;;;;;;21.40;12.30;;;;;;;0.78;100.00;101841.74;109466;1251;60094;-77
2024/02/18 10:42:28;;;;;;;21.90;13.70;;;;;;;0.81;100.00;101845.18;109565;1254;72375;-77
2024/02/18 10:44:56;;;;;;;26.30;13.10;;;;;;;0.83;100.00;101835.55;109638;1253;65138;-77
2024/02/18 10:47:24;;;;;;;15.90;10.60;;;;;;;0.86;100.00;101833.83;109494;1254;73783;-77
2024/02/18 10:49:58;;;;;;;20.70;12.20;;;;;;;0.87;100.00;101825.91;109543;1254;59424;-77
2024/02/18 10:52:44;;;;;;;18.80;11.00;;;;;;;0.88;100.00;101826.08;109565;1254;60035;-78
2024/02/18 10:55:21;;;;;;;22.30;11.80;;;;;;;0.91;100.00;101827.96;109541;1254;73922;-77
2024/02/18 10:57:55;;;;;;;19.50;11.80;;;;;;;0.91;100.00;101828.31;109464;1254;63525;-76
2024/02/18 11:00:26;;;;;;;21.70;12.20;;;;;;;0.94;100.00;101827.97;109520;1252;70418;-78
2024/02/18 11:03:11;;;;;;;23.70;13.40;;;;;;;0.96;100.00;101825.56;109392;1252;177611;-75